Time;durP1;ratioP1;P1;durP2;ratioP2;P2;SDS_P1;SDS_P2;PMS_P1;PMS_P2;Temp;Humidity;BMP_temperature;BMP_pressure;BME280_temperature;BME280_humidity;BME280_pressure;Samples;Min_cycle;Max_cycle;Signal;HPM_P1;HPM_P2
2023/01/15 00:00:52;;;;;;;1.65;0.80;;;11.10;99.90;;;;;;4929522;29;20253;-72
2023/01/15 00:03:20;;;;;;;1.00;0.77;;;11.10;99.90;;;;;;4929913;29;20228;-71
2023/01/15 00:05:47;;;;;;;0.73;0.60;;;11.10;99.90;;;;;;4931215;29;20212;-72
2023/01/15 00:08:14;;;;;;;1.33;0.70;;;11.10;99.90;;;;;;4933325;29;20240;-73
2023/01/15 00:10:41;;;;;;;1.00;0.80;;;11.10;99.90;;;;;;4926817;29;20198;-72
2023/01/15 00:13:08;;;;;;;1.98;0.70;;;11.20;99.90;;;;;;4916863;29;20221;-72
2023/01/15 00:15:35;;;;;;;0.80;0.70;;;11.20;99.90;;;;;;4920011;29;20202;-72
2023/01/15 00:18:03;;;;;;;0.60;0.60;;;11.20;99.90;;;;;;4925143;29;20205;-72
2023/01/15 00:20:31;;;;;;;0.65;0.65;;;11.10;99.90;;;;;;4928476;29;20581;-72
2023/01/15 00:22:58;;;;;;;0.88;0.70;;;11.10;99.90;;;;;;4915097;29;20213;-72
2023/01/15 00:28:13;;;;;;;1.50;0.60;;;11.00;99.90;;;;;;4914090;29;20206;-72
2023/01/15 00:30:41;;;;;;;0.70;0.60;;;11.10;99.90;;;;;;4918365;29;20201;-72
2023/01/15 00:33:08;;;;;;;0.80;0.70;;;11.10;99.90;;;;;;4922441;29;20225;-72
2023/01/15 00:35:36;;;;;;;1.13;0.77;;;11.10;99.90;;;;;;4931108;29;20208;-72
2023/01/15 00:38:04;;;;;;;0.70;0.70;;;11.10;99.90;;;;;;4922799;29;20201;-71
2023/01/15 00:40:30;;;;;;;0.90;0.70;;;11.20;99.90;;;;;;4924358;29;20201;-72
2023/01/15 00:42:57;;;;;;;1.00;0.80;;;11.20;99.90;;;;;;4918196;29;20244;-71
2023/01/15 00:45:25;;;;;;;0.75;0.68;;;11.20;99.90;;;;;;4930003;29;20228;-72
2023/01/15 00:47:51;;;;;;;1.35;0.77;;;11.20;99.90;;;;;;4923760;29;20229;-72
2023/01/15 00:50:18;;;;;;;0.70;0.60;;;11.30;99.90;;;;;;4928004;29;20295;-72
2023/01/15 00:52:47;;;;;;;0.73;0.70;;;11.30;99.90;;;;;;4917371;29;20225;-72
2023/01/15 00:55:14;;;;;;;0.85;0.70;;;11.30;99.90;;;;;;4919761;29;20643;-72
2023/01/15 00:57:41;;;;;;;0.90;0.60;;;11.30;99.90;;;;;;4921634;29;20227;-72
2023/01/15 01:00:11;;;;;;;1.02;0.70;;;11.30;99.90;;;;;;4925844;29;20314;-72
2023/01/15 01:02:37;;;;;;;0.60;0.60;;;11.30;99.90;;;;;;4922405;29;20694;-72
2023/01/15 01:05:05;;;;;;;0.60;0.60;;;11.30;99.90;;;;;;4923538;29;20263;-71
2023/01/15 01:07:32;;;;;;;0.70;0.60;;;11.30;99.90;;;;;;4923499;29;20210;-72
2023/01/15 01:10:00;;;;;;;2.10;0.82;;;11.30;99.90;;;;;;4920570;29;20201;-72
2023/01/15 01:12:27;;;;;;;0.60;0.60;;;11.20;99.90;;;;;;4933075;29;20661;-72
2023/01/15 01:14:54;;;;;;;0.82;0.60;;;11.20;99.90;;;;;;4922934;29;20204;-72
2023/01/15 01:17:21;;;;;;;1.27;0.60;;;11.20;99.90;;;;;;4925402;29;20227;-72
2023/01/15 01:19:48;;;;;;;0.70;0.60;;;11.20;99.90;;;;;;4924723;29;20216;-74
2023/01/15 01:22:16;;;;;;;0.70;0.70;;;11.20;99.90;;;;;;4925306;29;20249;-71
2023/01/15 01:24:43;;;;;;;0.70;0.60;;;11.20;99.90;;;;;;4918562;29;20720;-72
2023/01/15 01:27:12;;;;;;;0.70;0.55;;;11.20;99.90;;;;;;4922007;29;20662;-72
2023/01/15 01:29:39;;;;;;;1.10;0.70;;;11.20;99.90;;;;;;4919256;29;20260;-72
2023/01/15 01:32:06;;;;;;;0.90;0.60;;;11.20;99.90;;;;;;4923925;29;20221;-72
2023/01/15 01:34:33;;;;;;;0.70;0.50;;;11.30;99.90;;;;;;4920399;29;20232;-72
2023/01/15 01:37:00;;;;;;;0.88;0.70;;;11.30;99.90;;;;;;4924048;29;20538;-71
2023/01/15 01:39:27;;;;;;;0.68;0.57;;;11.30;99.90;;;;;;4925397;29;20201;-72
2023/01/15 01:41:54;;;;;;;0.75;0.70;;;11.40;99.90;;;;;;4921451;29;20229;-72
2023/01/15 01:45:00;;;;;;;0.75;0.50;;;11.40;99.90;;;;;;4916525;29;20221;-72
2023/01/15 01:47:29;;;;;;;0.70;0.70;;;11.40;99.90;;;;;;4919917;29;20581;-72
2023/01/15 01:50:03;;;;;;;0.70;0.50;;;11.50;99.90;;;;;;4917282;29;20202;-72
2023/01/15 01:52:33;;;;;;;3.08;0.70;;;11.60;99.90;;;;;;4922476;29;20224;-72
2023/01/15 01:55:02;;;;;;;0.60;0.60;;;11.60;99.90;;;;;;4917905;29;20257;-72
2023/01/15 01:57:30;;;;;;;0.70;0.50;;;11.70;99.90;;;;;;4922169;29;20201;-72
2023/01/15 02:00:00;;;;;;;0.90;0.60;;;11.70;99.90;;;;;;4928391;29;20287;-72
2023/01/15 02:02:28;;;;;;;0.80;0.60;;;11.70;99.90;;;;;;4922886;29;20272;-71
2023/01/15 02:04:55;;;;;;;0.70;0.60;;;11.80;99.90;;;;;;4917999;29;20324;-71
2023/01/15 02:07:22;;;;;;;0.90;0.50;;;11.80;99.90;;;;;;4918691;29;20296;-72
2023/01/15 02:09:49;;;;;;;0.70;0.60;;;11.80;99.90;;;;;;4924422;29;20236;-71
2023/01/15 02:12:22;;;;;;;0.57;0.50;;;11.80;99.90;;;;;;4927857;29;20220;-71
2023/01/15 02:14:58;;;;;;;1.42;0.70;;;11.90;99.90;;;;;;4918837;29;20205;-71
2023/01/15 02:17:33;;;;;;;0.60;0.50;;;11.90;99.90;;;;;;4919948;29;20554;-72
2023/01/15 02:20:16;;;;;;;0.90;0.70;;;11.90;99.90;;;;;;4925538;29;20659;-71
2023/01/15 02:22:55;;;;;;;0.60;0.50;;;12.00;99.90;;;;;;4919297;29;20241;-72
2023/01/15 02:25:31;;;;;;;0.70;0.60;;;12.00;99.90;;;;;;4922607;29;20287;-72
2023/01/15 02:28:07;;;;;;;0.60;0.50;;;12.00;99.90;;;;;;4917426;29;20285;-72
2023/01/15 02:30:41;;;;;;;1.10;0.50;;;12.00;99.90;;;;;;4923589;29;20212;-71
2023/01/15 02:33:12;;;;;;;0.52;0.50;;;12.00;99.90;;;;;;4921379;29;20225;-71
2023/01/15 02:35:44;;;;;;;0.60;0.55;;;12.00;99.90;;;;;;4917816;29;20783;-72
2023/01/15 02:38:15;;;;;;;1.15;0.60;;;12.00;99.90;;;;;;4921298;29;20212;-71
2023/01/15 02:40:43;;;;;;;0.63;0.40;;;12.10;99.90;;;;;;4916347;29;20202;-72
2023/01/15 02:43:15;;;;;;;0.50;0.47;;;12.10;99.90;;;;;;4921364;29;20511;-72
2023/01/15 02:45:46;;;;;;;0.50;0.40;;;12.10;99.90;;;;;;4922404;29;20229;-72
2023/01/15 02:48:16;;;;;;;0.60;0.43;;;12.10;99.90;;;;;;4921206;29;20212;-72
2023/01/15 02:50:46;;;;;;;0.60;0.50;;;12.10;99.90;;;;;;4931945;29;20211;-73
2023/01/15 02:53:18;;;;;;;0.50;0.40;;;12.10;99.90;;;;;;4919308;29;20206;-73
2023/01/15 02:55:49;;;;;;;0.50;0.40;;;12.10;99.90;;;;;;4918643;29;20244;-72
2023/01/15 02:58:23;;;;;;;0.50;0.40;;;12.10;99.90;;;;;;4920073;29;20212;-73
2023/01/15 03:00:53;;;;;;;1.15;0.50;;;12.10;99.90;;;;;;4919701;29;20185;-72
2023/01/15 03:03:29;;;;;;;0.57;0.50;;;12.10;99.90;;;;;;4926883;29;20216;-72
2023/01/15 03:06:00;;;;;;;0.60;0.50;;;12.10;99.90;;;;;;4921533;29;20217;-72
2023/01/15 03:08:27;;;;;;;1.10;0.50;;;12.10;99.90;;;;;;4915414;29;20686;-72
2023/01/15 03:11:04;;;;;;;0.60;0.50;;;12.10;99.90;;;;;;4928828;29;20237;-72
2023/01/15 03:13:45;;;;;;;0.85;0.43;;;12.10;99.90;;;;;;4919268;29;20224;-72
2023/01/15 03:16:37;;;;;;;0.70;0.60;;;12.10;99.90;;;;;;4922518;29;20205;-71
2023/01/15 03:19:16;;;;;;;0.65;0.45;;;12.20;99.90;;;;;;4920968;29;20205;-71
2023/01/15 03:21:50;;;;;;;0.80;0.40;;;12.20;99.90;;;;;;4928718;29;20217;-71
2023/01/15 03:24:24;;;;;;;1.02;0.50;;;12.20;99.90;;;;;;4924855;29;20516;-71
2023/01/15 03:26:52;;;;;;;0.60;0.50;;;12.20;99.90;;;;;;4918476;29;20195;-71
2023/01/15 03:29:22;;;;;;;0.60;0.50;;;12.30;99.90;;;;;;4916424;29;20565;-72
2023/01/15 03:31:49;;;;;;;0.60;0.50;;;12.20;99.90;;;;;;4925518;29;20221;-71
2023/01/15 03:34:17;;;;;;;0.60;0.50;;;12.30;99.90;;;;;;4922422;29;20201;-72
2023/01/15 03:36:44;;;;;;;0.50;0.40;;;12.30;99.90;;;;;;4926412;29;20202;-71
2023/01/15 03:39:11;;;;;;;0.50;0.40;;;12.30;99.90;;;;;;4929948;29;20449;-70
2023/01/15 03:41:49;;;;;;;0.70;0.43;;;12.30;99.90;;;;;;4920630;29;20493;-71
2023/01/15 03:44:31;;;;;;;0.50;0.43;;;12.30;99.90;;;;;;4921818;29;20284;-71
2023/01/15 03:47:08;;;;;;;0.50;0.40;;;12.30;99.90;;;;;;4925439;29;20208;-71
2023/01/15 03:49:45;;;;;;;0.60;0.50;;;12.40;99.90;;;;;;4917310;29;20326;-70
2023/01/15 03:52:19;;;;;;;0.60;0.40;;;12.40;99.90;;;;;;4930443;29;20223;-71
2023/01/15 03:54:53;;;;;;;0.60;0.50;;;12.40;99.90;;;;;;4925141;29;20252;-71
2023/01/15 03:57:29;;;;;;;0.60;0.40;;;12.40;99.90;;;;;;4919968;29;20202;-71
2023/01/15 04:00:02;;;;;;;0.70;0.50;;;12.40;99.90;;;;;;4918154;29;20196;-71
2023/01/15 04:02:30;;;;;;;0.50;0.40;;;12.50;99.90;;;;;;4923567;29;20223;-71
2023/01/15 04:04:58;;;;;;;0.50;0.50;;;12.50;99.90;;;;;;4928938;29;20311;-71
2023/01/15 04:07:26;;;;;;;0.60;0.50;;;12.50;99.90;;;;;;4925759;29;20208;-70
2023/01/15 04:09:53;;;;;;;0.60;0.50;;;12.50;99.90;;;;;;4922642;29;20229;-71
2023/01/15 04:12:20;;;;;;;0.70;0.50;;;12.50;99.90;;;;;;4921809;29;20253;-71
2023/01/15 04:14:47;;;;;;;0.50;0.40;;;12.50;99.90;;;;;;4924461;29;20201;-71
2023/01/15 04:17:15;;;;;;;0.50;0.40;;;12.50;99.90;;;;;;4923565;29;20201;-71
2023/01/15 04:19:43;;;;;;;0.50;0.40;;;12.60;99.90;;;;;;4927612;29;20820;-72
2023/01/15 04:22:11;;;;;;;0.63;0.45;;;12.60;99.90;;;;;;4934901;29;20237;-72
2023/01/15 04:24:39;;;;;;;0.50;0.50;;;12.50;99.90;;;;;;4919962;29;20198;-71
2023/01/15 04:27:06;;;;;;;1.90;0.40;;;12.60;99.90;;;;;;4927668;29;20797;-70
2023/01/15 04:29:34;;;;;;;0.60;0.43;;;12.60;99.90;;;;;;4921889;29;20521;-71
2023/01/15 04:32:01;;;;;;;0.50;0.40;;;12.60;99.90;;;;;;4926505;29;20578;-71
2023/01/15 04:34:33;;;;;;;0.60;0.40;;;12.50;99.90;;;;;;4924705;29;20201;-72
2023/01/15 04:37:01;;;;;;;1.10;0.50;;;12.50;99.90;;;;;;4926762;29;20553;-71
2023/01/15 04:39:28;;;;;;;0.80;0.60;;;12.50;99.90;;;;;;4917551;29;20859;-72
2023/01/15 04:44:41;;;;;;;0.88;0.50;;;12.50;99.90;;;;;;4928852;29;20202;-72
2023/01/15 04:47:09;;;;;;;0.60;0.40;;;12.50;99.90;;;;;;4928819;29;20698;-71
2023/01/15 04:49:38;;;;;;;0.50;0.40;;;12.50;99.90;;;;;;4919161;29;20477;-73
2023/01/15 04:52:06;;;;;;;0.80;0.40;;;12.50;99.90;;;;;;4928493;29;20474;-71
2023/01/15 04:54:34;;;;;;;0.50;0.40;;;12.40;99.90;;;;;;4917829;29;20198;-72
2023/01/15 04:57:01;;;;;;;0.50;0.40;;;12.40;99.90;;;;;;4923397;29;20240;-71
2023/01/15 04:59:29;;;;;;;0.50;0.50;;;12.30;99.90;;;;;;4917889;29;20197;-71
2023/01/15 05:01:57;;;;;;;0.50;0.40;;;12.30;99.90;;;;;;4930463;29;20218;-71
2023/01/15 05:04:24;;;;;;;0.70;0.47;;;12.20;99.90;;;;;;4918201;29;20296;-72
2023/01/15 05:06:53;;;;;;;0.50;0.40;;;12.20;99.90;;;;;;4923733;29;20229;-71
2023/01/15 05:09:21;;;;;;;0.90;0.50;;;12.20;99.90;;;;;;4924081;29;20231;-73
2023/01/15 05:11:48;;;;;;;0.90;0.55;;;12.20;99.90;;;;;;4932722;29;20308;-72
2023/01/15 05:14:16;;;;;;;1.33;0.50;;;11.90;99.90;;;;;;4922690;29;20233;-72
2023/01/15 05:16:44;;;;;;;1.08;0.40;;;11.30;99.90;;;;;;4921926;29;20220;-72
2023/01/15 05:19:11;;;;;;;0.82;0.40;;;10.80;99.90;;;;;;4921532;29;20208;-71
2023/01/15 05:21:42;;;;;;;0.60;0.50;;;10.40;99.90;;;;;;4920748;29;20214;-71
2023/01/15 05:24:14;;;;;;;0.60;0.43;;;10.20;99.90;;;;;;4919204;29;20221;-71
2023/01/15 05:26:42;;;;;;;0.60;0.50;;;10.00;99.90;;;;;;4919267;29;20686;-71
2023/01/15 05:29:11;;;;;;;1.90;0.50;;;9.70;99.90;;;;;;4920422;29;20224;-71
2023/01/15 05:31:38;;;;;;;1.20;0.70;;;9.50;99.90;;;;;;4920369;29;20316;-71
2023/01/15 05:34:05;;;;;;;0.70;0.55;;;9.40;99.90;;;;;;4929273;29;20194;-71
2023/01/15 05:36:32;;;;;;;0.88;0.60;;;9.20;99.90;;;;;;4932299;29;20566;-71
2023/01/15 05:39:00;;;;;;;0.60;0.60;;;9.10;99.90;;;;;;4922967;29;20295;-71
2023/01/15 05:44:16;;;;;;;0.57;0.50;;;8.90;99.90;;;;;;4931317;29;20219;-71
2023/01/15 05:46:44;;;;;;;1.55;0.68;;;8.80;99.90;;;;;;4920277;29;20310;-71
2023/01/15 05:49:12;;;;;;;0.60;0.60;;;8.60;99.90;;;;;;4921481;29;20210;-71
2023/01/15 05:51:40;;;;;;;0.60;0.50;;;8.60;99.90;;;;;;4917556;29;20279;-71
2023/01/15 05:54:10;;;;;;;0.70;0.57;;;8.50;99.90;;;;;;4922412;29;20204;-71
2023/01/15 05:56:39;;;;;;;0.63;0.63;;;8.40;99.90;;;;;;4922894;29;20214;-70
2023/01/15 05:59:07;;;;;;;0.70;0.70;;;8.40;99.90;;;;;;4927641;29;20554;-71
2023/01/15 06:01:34;;;;;;;0.70;0.70;;;8.30;99.90;;;;;;4921802;29;20227;-71
2023/01/15 06:04:02;;;;;;;0.80;0.80;;;8.30;99.90;;;;;;4922581;29;20294;-71
2023/01/15 06:06:30;;;;;;;0.70;0.70;;;8.30;99.90;;;;;;4924707;29;20738;-71
2023/01/15 06:08:57;;;;;;;0.80;0.80;;;8.30;99.90;;;;;;4916456;29;20550;-71
2023/01/15 06:11:24;;;;;;;1.20;1.00;;;8.30;99.90;;;;;;4924333;29;20703;-71
2023/01/15 06:13:53;;;;;;;1.17;1.05;;;8.20;99.90;;;;;;4927253;29;20247;-70
2023/01/15 06:16:20;;;;;;;1.25;1.15;;;8.20;99.90;;;;;;4928534;29;20200;-72
2023/01/15 06:18:47;;;;;;;1.20;1.10;;;8.20;99.90;;;;;;4916495;29;20209;-71
2023/01/15 06:21:14;;;;;;;1.20;1.10;;;8.20;99.90;;;;;;4919210;29;20624;-71
2023/01/15 06:23:42;;;;;;;1.35;1.25;;;8.20;99.90;;;;;;4932539;29;20273;-71
2023/01/15 06:26:12;;;;;;;1.20;1.10;;;8.20;99.90;;;;;;4932099;29;20234;-71
2023/01/15 06:28:40;;;;;;;0.98;0.98;;;8.20;99.90;;;;;;4927043;29;20281;-71
2023/01/15 06:31:10;;;;;;;1.25;1.00;;;8.10;99.90;;;;;;4922462;29;20220;-70
2023/01/15 06:33:37;;;;;;;0.90;0.85;;;8.10;99.90;;;;;;4928803;29;20208;-70
2023/01/15 06:36:05;;;;;;;1.10;1.00;;;8.00;99.90;;;;;;4922309;29;20364;-71
2023/01/15 06:38:33;;;;;;;0.82;0.82;;;8.00;99.90;;;;;;4918862;29;20204;-70
2023/01/15 06:41:01;;;;;;;0.80;0.80;;;7.90;99.90;;;;;;4921960;29;20704;-70
2023/01/15 06:49:00;;;;;;;0.60;0.50;;;7.80;99.90;;;;;;4915670;29;20200;-71
2023/01/15 06:51:27;;;;;;;0.50;0.50;;;7.60;99.90;;;;;;4929675;29;20236;-70
2023/01/15 06:53:54;;;;;;;0.55;0.55;;;7.50;99.90;;;;;;4916702;29;20226;-71
2023/01/15 06:56:21;;;;;;;0.73;0.60;;;7.50;99.90;;;;;;4915728;29;20198;-72
2023/01/15 06:58:49;;;;;;;0.60;0.50;;;7.40;99.90;;;;;;4925465;29;20202;-71
2023/01/15 07:01:17;;;;;;;0.50;0.50;;;7.30;99.90;;;;;;4925119;29;20276;-71
2023/01/15 07:03:44;;;;;;;1.08;0.60;;;7.20;99.90;;;;;;4923576;29;20289;-70
2023/01/15 07:06:13;;;;;;;0.50;0.50;;;7.20;99.90;;;;;;4923974;29;20630;-71
2023/01/15 07:08:40;;;;;;;0.50;0.50;;;7.10;99.90;;;;;;4916010;29;20608;-71
2023/01/15 07:11:09;;;;;;;0.50;0.50;;;7.10;99.90;;;;;;4919785;29;20740;-70
2023/01/15 07:13:36;;;;;;;0.50;0.45;;;7.00;99.90;;;;;;4924541;29;20262;-70
2023/01/15 07:16:05;;;;;;;0.55;0.50;;;6.90;99.90;;;;;;4917434;29;20204;-70
2023/01/15 07:18:33;;;;;;;0.50;0.43;;;6.80;99.90;;;;;;4919709;29;20198;-71
2023/01/15 07:21:00;;;;;;;0.50;0.47;;;6.80;99.90;;;;;;4922504;29;20271;-71
2023/01/15 07:23:28;;;;;;;0.50;0.50;;;6.80;99.90;;;;;;4916200;29;20586;-71
2023/01/15 07:25:55;;;;;;;0.50;0.50;;;6.70;99.90;;;;;;4930603;29;20240;-71
2023/01/15 07:28:23;;;;;;;0.50;0.40;;;6.60;99.90;;;;;;4919033;29;20248;-70
2023/01/15 07:30:50;;;;;;;0.90;0.40;;;6.60;99.90;;;;;;4924107;29;20216;-72
2023/01/15 07:33:17;;;;;;;1.42;0.60;;;6.50;99.90;;;;;;4926039;29;20292;-71
2023/01/15 07:35:45;;;;;;;0.57;0.50;;;6.50;99.90;;;;;;4915278;29;20209;-72
2023/01/15 07:38:12;;;;;;;0.50;0.47;;;6.50;99.90;;;;;;4916001;29;20202;-71
2023/01/15 07:40:39;;;;;;;0.60;0.50;;;6.50;99.90;;;;;;4923037;29;20221;-71
2023/01/15 07:51:22;;;;;;;1.15;0.45;;;6.40;99.90;;;;;;4915750;29;20268;-73
2023/01/15 07:53:49;;;;;;;0.50;0.43;;;6.40;99.90;;;;;;4917357;29;20205;-71
2023/01/15 07:56:16;;;;;;;0.60;0.45;;;6.40;99.90;;;;;;4920154;29;20325;-72
2023/01/15 07:58:48;;;;;;;0.98;0.50;;;6.40;99.90;;;;;;4923430;29;20297;-71
2023/01/15 08:01:15;;;;;;;0.50;0.43;;;6.40;99.90;;;;;;4920023;29;20583;-72
2023/01/15 08:03:42;;;;;;;0.60;0.52;;;6.40;99.90;;;;;;4918829;29;20197;-72
2023/01/15 08:06:09;;;;;;;0.93;0.50;;;6.40;99.90;;;;;;4927574;29;20705;-73
2023/01/15 08:08:37;;;;;;;0.70;0.50;;;6.40;99.90;;;;;;4916471;29;20289;-71
2023/01/15 08:16:45;;;;;;;0.70;0.50;;;6.50;99.90;;;;;;4923158;29;20208;-71
2023/01/15 08:19:12;;;;;;;0.50;0.50;;;6.50;99.90;;;;;;4919298;29;20212;-71
2023/01/15 08:21:40;;;;;;;1.40;0.50;;;6.50;99.90;;;;;;4920354;29;20235;-74
2023/01/15 08:24:08;;;;;;;0.60;0.60;;;6.50;99.90;;;;;;4915660;29;20198;-72
2023/01/15 08:26:35;;;;;;;1.98;0.50;;;6.60;99.90;;;;;;4921691;29;20232;-70
2023/01/15 08:29:02;;;;;;;0.65;0.50;;;6.80;99.90;;;;;;4917732;29;20311;-72
2023/01/15 08:31:29;;;;;;;0.50;0.50;;;6.70;99.90;;;;;;4928092;29;20615;-70
2023/01/15 08:33:56;;;;;;;0.60;0.50;;;6.70;99.90;;;;;;4916980;29;20202;-68
2023/01/15 08:36:23;;;;;;;0.65;0.57;;;6.60;99.90;;;;;;4926946;29;20280;-68
2023/01/15 08:38:51;;;;;;;0.50;0.50;;;6.60;99.90;;;;;;4916534;29;20281;-68
2023/01/15 08:41:19;;;;;;;0.60;0.57;;;6.60;99.90;;;;;;4910367;29;20644;-68
2023/01/15 08:43:46;;;;;;;1.02;0.52;;;6.60;99.90;;;;;;4921616;29;20201;-68
2023/01/15 08:46:13;;;;;;;1.23;0.82;;;6.50;99.90;;;;;;4923107;29;20316;-70
2023/01/15 08:48:40;;;;;;;0.63;0.57;;;6.50;99.90;;;;;;4925052;29;20194;-68
2023/01/15 08:51:09;;;;;;;0.75;0.65;;;6.50;99.90;;;;;;4929027;29;20249;-69
2023/01/15 08:53:36;;;;;;;0.50;0.47;;;6.50;99.90;;;;;;4929749;29;20197;-68
2023/01/15 08:56:04;;;;;;;0.60;0.52;;;6.50;99.90;;;;;;4926595;29;20295;-68
2023/01/15 08:58:32;;;;;;;0.80;0.60;;;6.40;99.90;;;;;;4929733;29;20201;-68
2023/01/15 09:01:04;;;;;;;0.60;0.50;;;6.30;99.90;;;;;;4925580;29;20311;-68
2023/01/15 09:03:32;;;;;;;0.60;0.60;;;6.20;99.90;;;;;;4932078;29;20275;-69
2023/01/15 09:05:59;;;;;;;0.70;0.60;;;6.20;99.90;;;;;;4922969;29;20300;-72
2023/01/15 09:08:27;;;;;;;0.70;0.60;;;6.10;99.90;;;;;;4919347;29;20252;-72
2023/01/15 09:10:57;;;;;;;0.50;0.50;;;6.10;99.90;;;;;;4924061;29;20272;-70
2023/01/15 09:13:25;;;;;;;0.65;0.65;;;6.10;99.90;;;;;;4919487;29;20193;-70
2023/01/15 09:15:53;;;;;;;1.00;0.70;;;6.00;99.90;;;;;;4917082;29;20213;-69
2023/01/15 09:18:20;;;;;;;0.50;0.50;;;6.00;99.90;;;;;;4920553;29;20753;-69
2023/01/15 09:20:48;;;;;;;0.70;0.63;;;6.00;99.90;;;;;;4919686;29;20232;-70
2023/01/15 09:23:16;;;;;;;0.75;0.70;;;6.00;99.90;;;;;;4924064;29;20204;-69
2023/01/15 09:25:51;;;;;;;1.08;0.63;;;6.00;99.90;;;;;;4922155;29;20685;-70
2023/01/15 09:28:18;;;;;;;0.60;0.60;;;5.90;99.90;;;;;;4923578;29;20216;-69
2023/01/15 09:30:45;;;;;;;0.60;0.50;;;5.90;99.90;;;;;;4923302;29;20665;-70
2023/01/15 09:33:14;;;;;;;1.15;0.60;;;5.90;99.90;;;;;;4922714;29;20205;-70
2023/01/15 09:35:42;;;;;;;0.70;0.60;;;5.90;99.90;;;;;;4923872;29;20254;-69
2023/01/15 09:38:11;;;;;;;1.17;0.57;;;5.90;99.90;;;;;;4936274;29;20196;-69
2023/01/15 09:40:47;;;;;;;0.80;0.60;;;5.90;99.90;;;;;;4924663;29;20221;-70
2023/01/15 09:43:41;;;;;;;0.80;0.50;;;5.90;99.90;;;;;;4925237;29;20201;-70
2023/01/15 09:46:13;;;;;;;1.27;0.60;;;6.00;99.90;;;;;;4923509;29;20205;-70
2023/01/15 09:49:00;;;;;;;0.90;0.57;;;6.00;99.90;;;;;;4924494;29;20202;-70
2023/01/15 09:51:34;;;;;;;0.80;0.80;;;6.00;99.90;;;;;;4924726;29;20362;-69
2023/01/15 09:54:14;;;;;;;0.73;0.70;;;6.00;99.90;;;;;;4929470;29;20197;-69
2023/01/15 09:56:41;;;;;;;0.63;0.50;;;6.00;99.90;;;;;;4928694;29;20622;-69
2023/01/15 09:59:20;;;;;;;0.60;0.60;;;6.00;99.90;;;;;;4923399;29;20197;-69
2023/01/15 10:01:49;;;;;;;1.23;0.63;;;6.00;99.90;;;;;;4922228;29;20221;-70
2023/01/15 10:04:30;;;;;;;0.93;0.70;;;6.00;99.90;;;;;;4922426;29;20227;-69
2023/01/15 10:07:05;;;;;;;1.45;0.75;;;6.00;99.90;;;;;;4928543;29;21160;-69
2023/01/15 10:09:36;;;;;;;0.95;0.77;;;6.00;99.90;;;;;;4931548;29;20247;-69
2023/01/15 10:15:06;;;;;;;0.50;0.50;;;5.90;99.90;;;;;;4919603;29;20207;-68
2023/01/15 10:17:40;;;;;;;0.50;0.50;;;5.90;99.90;;;;;;4926130;29;20204;-70
2023/01/15 10:20:17;;;;;;;0.55;0.55;;;5.80;99.90;;;;;;4919714;29;21054;-69
2023/01/15 10:22:53;;;;;;;0.50;0.50;;;5.80;99.90;;;;;;4921736;29;20196;-70
2023/01/15 10:25:27;;;;;;;1.17;0.50;;;5.80;99.90;;;;;;4929163;29;20665;-69
2023/01/15 10:27:59;;;;;;;0.70;0.50;;;5.80;99.90;;;;;;4925183;29;20228;-69
2023/01/15 10:30:36;;;;;;;1.00;0.80;;;5.70;99.90;;;;;;4921628;29;20285;-70
2023/01/15 10:33:16;;;;;;;0.50;0.50;;;5.60;99.90;;;;;;4926369;29;20248;-69
2023/01/15 10:35:54;;;;;;;0.60;0.55;;;5.60;99.90;;;;;;4921569;29;20598;-70
2023/01/15 10:38:30;;;;;;;0.60;0.60;;;5.60;99.90;;;;;;4927996;29;20197;-70
2023/01/15 10:41:18;;;;;;;0.70;0.60;;;5.60;99.90;;;;;;4922743;29;20221;-69
2023/01/15 10:43:52;;;;;;;0.80;0.70;;;5.50;99.90;;;;;;4927399;29;20201;-71
2023/01/15 10:46:25;;;;;;;0.60;0.50;;;5.40;99.90;;;;;;4921338;29;20752;-69
2023/01/15 10:48:56;;;;;;;0.98;0.55;;;5.40;99.90;;;;;;4920457;29;20209;-68
2023/01/15 10:51:30;;;;;;;0.60;0.60;;;5.30;99.90;;;;;;4920311;29;20212;-69
2023/01/15 10:54:02;;;;;;;0.50;0.50;;;5.10;99.90;;;;;;4922600;29;20201;-69
2023/01/15 10:56:35;;;;;;;0.82;0.73;;;5.00;99.90;;;;;;4925392;29;20240;-69
2023/01/15 10:59:15;;;;;;;1.38;0.50;;;4.90;99.90;;;;;;4920179;29;20202;-70
2023/01/15 11:01:44;;;;;;;0.65;0.60;;;4.80;99.90;;;;;;4918932;29;20217;-68
2023/01/15 11:04:12;;;;;;;0.75;0.60;;;4.80;99.90;;;;;;4923081;29;20663;-70
2023/01/15 11:06:41;;;;;;;0.50;0.50;;;4.70;99.90;;;;;;4921833;29;20207;-67
2023/01/15 11:09:18;;;;;;;0.90;0.60;;;4.60;99.90;;;;;;4928504;29;20280;-68
2023/01/15 11:20:19;;;;;;;0.60;0.60;;;4.50;99.90;;;;;;4926010;29;20229;-69
2023/01/15 11:22:47;;;;;;;0.70;0.70;;;4.50;99.90;;;;;;4917582;29;20257;-69
2023/01/15 11:25:25;;;;;;;0.60;0.60;;;4.50;99.90;;;;;;4919741;29;20205;-69
2023/01/15 11:27:53;;;;;;;0.90;0.75;;;4.50;99.90;;;;;;4924924;29;20220;-68
2023/01/15 11:30:29;;;;;;;0.88;0.50;;;4.50;99.90;;;;;;4924658;28;20631;-68
2023/01/15 11:32:57;;;;;;;1.00;0.75;;;4.50;99.90;;;;;;4924022;29;20294;-68
2023/01/15 11:35:25;;;;;;;0.93;0.82;;;4.40;99.90;;;;;;4926051;29;20193;-69
2023/01/15 11:38:06;;;;;;;0.88;0.70;;;4.40;99.90;;;;;;4924286;29;20197;-67
2023/01/15 11:40:34;;;;;;;0.95;0.70;;;4.30;99.90;;;;;;4925586;29;20225;-68
2023/01/15 11:51:28;;;;;;;0.77;0.75;;;4.10;99.90;;;;;;4922703;29;20261;-69
2023/01/15 11:54:04;;;;;;;0.65;0.60;;;4.10;99.90;;;;;;4926496;29;20202;-68
2023/01/15 11:56:34;;;;;;;1.63;0.57;;;4.00;99.90;;;;;;4928438;29;20305;-68
2023/01/15 11:59:03;;;;;;;3.63;0.60;;;4.00;99.90;;;;;;4926158;29;20279;-68
2023/01/15 12:01:34;;;;;;;0.75;0.50;;;4.00;99.90;;;;;;4918029;29;20228;-68
2023/01/15 12:04:05;;;;;;;1.17;0.60;;;4.00;99.90;;;;;;4925966;29;20208;-69
2023/01/15 12:06:37;;;;;;;1.45;0.60;;;4.00;99.90;;;;;;4931760;29;20231;-67
2023/01/15 12:09:15;;;;;;;0.60;0.60;;;4.10;99.90;;;;;;4925100;29;20232;-69
2023/01/15 12:12:03;;;;;;;0.60;0.50;;;4.20;99.90;;;;;;4923740;29;20229;-67
2023/01/15 12:14:59;;;;;;;1.52;0.63;;;4.20;99.90;;;;;;4924592;29;20201;-67
2023/01/15 12:17:42;;;;;;;0.60;0.50;;;4.10;99.90;;;;;;4918812;29;20205;-68
2023/01/15 12:20:21;;;;;;;1.40;0.80;;;4.20;99.90;;;;;;4924734;29;20308;-67
2023/01/15 12:23:13;;;;;;;1.20;0.70;;;4.20;99.90;;;;;;4922108;29;20749;-67
2023/01/15 12:25:53;;;;;;;1.00;0.60;;;4.20;99.90;;;;;;4922369;29;20204;-67
2023/01/15 12:28:26;;;;;;;1.50;0.60;;;4.20;99.90;;;;;;4930184;29;20224;-68
2023/01/15 12:31:00;;;;;;;1.27;0.65;;;4.30;99.90;;;;;;4939908;29;20302;-67
2023/01/15 12:33:38;;;;;;;0.90;0.70;;;4.30;99.90;;;;;;4921847;29;20311;-68
2023/01/15 12:36:11;;;;;;;1.75;0.60;;;4.30;99.90;;;;;;4929933;29;20201;-67
2023/01/15 12:38:48;;;;;;;2.38;0.73;;;4.40;99.90;;;;;;4926047;29;20241;-68
2023/01/15 12:41:22;;;;;;;0.80;0.70;;;4.50;99.90;;;;;;4920278;29;20228;-68
2023/01/15 12:46:41;;;;;;;2.42;1.00;;;4.50;99.90;;;;;;4926826;29;20236;-68
2023/01/15 12:49:20;;;;;;;1.45;0.90;;;4.60;99.90;;;;;;4929215;29;20269;-67
2023/01/15 12:51:51;;;;;;;1.60;0.88;;;4.60;99.90;;;;;;4926329;29;20212;-68
2023/01/15 12:54:23;;;;;;;1.15;0.70;;;4.60;99.90;;;;;;4914606;29;20720;-70
2023/01/15 12:56:57;;;;;;;1.35;0.77;;;4.60;99.90;;;;;;4931972;29;20649;-70
2023/01/15 12:59:29;;;;;;;0.63;0.60;;;4.70;99.90;;;;;;4927903;29;20200;-68
2023/01/15 13:02:08;;;;;;;1.20;0.80;;;4.70;99.90;;;;;;4925382;29;20201;-69
2023/01/15 13:04:45;;;;;;;1.33;0.90;;;4.80;99.90;;;;;;4922683;29;20197;-68
2023/01/15 13:07:20;;;;;;;1.90;0.82;;;4.80;99.90;;;;;;4923671;29;20201;-69
2023/01/15 13:09:54;;;;;;;2.55;1.20;;;4.80;99.90;;;;;;4922436;29;20237;-69
2023/01/15 13:12:22;;;;;;;1.65;0.85;;;4.80;99.90;;;;;;4922554;29;20208;-69
2023/01/15 13:14:50;;;;;;;0.85;0.80;;;4.90;99.90;;;;;;4925299;29;20213;-69
2023/01/15 13:17:26;;;;;;;1.00;0.73;;;4.90;99.90;;;;;;4923715;29;20198;-69
2023/01/15 13:20:17;;;;;;;1.73;0.70;;;5.00;99.90;;;;;;4921292;29;20566;-67
2023/01/15 13:22:54;;;;;;;1.40;0.70;;;5.00;99.90;;;;;;4921830;29;20292;-69
2023/01/15 13:25:42;;;;;;;1.25;0.98;;;5.00;99.90;;;;;;4921197;29;20205;-68
2023/01/15 13:28:42;;;;;;;1.67;0.70;;;5.10;99.90;;;;;;4922487;29;20224;-68
2023/01/15 13:31:27;;;;;;;1.35;0.70;;;5.10;99.90;;;;;;4919119;29;20229;-68
2023/01/15 13:33:57;;;;;;;1.48;0.80;;;5.20;99.90;;;;;;4921014;29;21177;-68
2023/01/15 13:36:26;;;;;;;0.90;0.80;;;5.20;99.90;;;;;;4922618;29;20205;-68
2023/01/15 13:38:56;;;;;;;1.00;0.90;;;5.30;99.90;;;;;;4922664;29;20201;-68
2023/01/15 13:44:19;;;;;;;3.00;0.93;;;5.40;99.90;;;;;;4918973;29;20582;-68
2023/01/15 13:46:48;;;;;;;1.83;0.95;;;5.60;99.90;;;;;;4920568;29;20205;-76
2023/01/15 13:49:22;;;;;;;1.50;0.80;;;5.90;99.90;;;;;;4923538;29;20229;-70
2023/01/15 13:51:50;;;;;;;2.15;1.20;;;6.10;99.90;;;;;;4923668;29;20200;-67
2023/01/15 13:54:22;;;;;;;1.05;0.70;;;6.30;99.90;;;;;;4927775;29;20212;-69
2023/01/15 13:56:49;;;;;;;1.17;0.82;;;6.50;99.90;;;;;;4920275;29;20562;-68
2023/01/15 13:59:40;;;;;;;1.85;0.80;;;6.70;99.90;;;;;;4931258;29;20201;-69
2023/01/15 14:02:27;;;;;;;2.35;0.80;;;6.70;99.90;;;;;;4927494;29;20201;-68
2023/01/15 14:04:54;;;;;;;2.25;0.85;;;6.70;99.90;;;;;;4916657;29;20201;-69